Buckley, United Kingdom
Current Conditions -  °F | °C
As of 3:50 AM on Monday 22 Dec 2014 (Local Time) from EGGP Reporting Station
Scattered Clouds Scattered Clouds  
Wind Chill: 54°   Ceiling: Unl
Heat Index: 54°   Visibility: 6mi
Dew Point: 48°   Wind: 25mph
Humidity: 82%   Direction: 230°SW
Pressure: 29.85"   Gusts: NA
Location:  53.17°N, 3.08°W
Report Text: EGGP 220350Z 23022KT 9999 SCT022 12/09 Q1011
Loading
Personal Weather Stations






























Interactive Weather Map New forecast layout! Learn more

10-Day Weather Forecast

Advertisements
Track Severe Weather on mobile